Time;durP1;ratioP1;P1;durP2;ratioP2;P2;SDS_P1;SDS_P2;PMS_P1;PMS_P2;Temp;Humidity;BMP_temperature;BMP_pressure;BME280_temperature;BME280_humidity;BME280_pressure;Samples;Min_cycle;Max_cycle;Signal;HPM_P1;HPM_P2
2023/05/17 00:00:09;;;;;;;3.95;2.47;;;8.20;99.90;;;;;;4975143;28;20037;-80
2023/05/17 00:02:35;;;;;;;10.10;2.80;;;8.20;99.90;;;;;;4974356;28;20026;-80
2023/05/17 00:05:02;;;;;;;6.00;2.75;;;8.40;99.90;;;;;;4974974;28;20111;-80
2023/05/17 00:07:27;;;;;;;9.70;3.45;;;8.20;99.90;;;;;;4974479;28;20040;-80
2023/05/17 00:09:53;;;;;;;5.25;2.38;;;8.20;99.90;;;;;;4973670;28;20022;-80
2023/05/17 00:12:18;;;;;;;4.70;2.08;;;8.10;99.90;;;;;;4993078;28;20108;-79
2023/05/17 00:14:44;;;;;;;8.00;3.03;;;8.10;99.90;;;;;;4982504;28;20030;-80
2023/05/17 00:17:10;;;;;;;7.28;2.88;;;7.30;99.90;;;;;;4985081;28;20053;-80
2023/05/17 00:19:35;;;;;;;8.93;2.38;;;8.00;99.90;;;;;;5001069;28;20495;-80
2023/05/17 00:22:01;;;;;;;10.20;2.67;;;8.00;99.90;;;;;;4998442;28;20118;-80
2023/05/17 00:24:26;;;;;;;13.50;2.95;;;8.00;99.90;;;;;;4998676;28;20487;-79
2023/05/17 00:26:52;;;;;;;4.80;2.53;;;8.10;99.90;;;;;;4979752;28;20040;-81
2023/05/17 00:29:17;;;;;;;7.78;2.15;;;8.10;99.90;;;;;;4981305;28;20022;-81
2023/05/17 00:31:43;;;;;;;4.28;2.53;;;8.10;99.90;;;;;;4979912;28;20022;-80
2023/05/17 00:34:09;;;;;;;3.97;3.15;;;;;;;;;;4998254;28;20030;-81
2023/05/17 00:36:35;;;;;;;8.45;3.33;;;8.00;99.90;;;;;;4981420;28;20030;-80
2023/05/17 00:39:00;;;;;;;13.77;3.80;;;8.00;99.90;;;;;;4996821;28;20023;-79
2023/05/17 00:41:26;;;;;;;5.05;3.03;;;8.00;99.90;;;;;;4995425;28;20030;-79
2023/05/17 00:43:51;;;;;;;7.72;2.70;;;8.10;99.90;;;;;;4978401;28;20035;-79
2023/05/17 00:46:17;;;;;;;7.10;3.50;;;8.00;99.90;;;;;;4993418;28;20046;-79
2023/05/17 00:48:43;;;;;;;2.50;2.33;;;8.10;99.90;;;;;;4996798;28;20327;-81
2023/05/17 00:51:10;;;;;;;6.20;2.28;;;8.00;99.90;;;;;;5002396;28;20026;-80
2023/05/17 00:53:36;;;;;;;4.60;3.15;;;8.00;99.90;;;;;;4982363;28;20058;-80
2023/05/17 00:56:02;;;;;;;3.67;2.60;;;8.00;99.90;;;;;;4978067;28;20022;-80
2023/05/17 00:58:29;;;;;;;6.57;3.60;;;8.00;99.90;;;;;;4980616;28;20030;-80
2023/05/17 01:00:56;;;;;;;7.45;2.88;;;7.90;99.90;;;;;;4978580;28;20460;-80
2023/05/17 01:03:22;;;;;;;6.75;2.78;;;7.90;99.90;;;;;;4980105;28;20037;-80
2023/05/17 01:05:49;;;;;;;5.15;3.00;;;7.90;99.90;;;;;;4982323;28;20027;-82
2023/05/17 01:08:15;;;;;;;9.40;3.40;;;;;;;;;;4981679;28;20035;-81
2023/05/17 01:11:01;;;;;;;4.28;2.78;;;7.80;99.90;;;;;;4979546;28;20049;-81
2023/05/17 01:13:39;;;;;;;4.03;2.75;;;7.70;99.90;;;;;;4976928;28;20066;-81
2023/05/17 01:16:17;;;;;;;5.55;3.78;;;7.70;99.90;;;;;;4996769;28;20027;-80
2023/05/17 01:19:13;;;;;;;3.80;2.83;;;7.60;99.90;;;;;;4980279;28;20030;-81
2023/05/17 01:21:54;;;;;;;2.92;2.03;;;7.60;99.90;;;;;;4977257;28;20094;-80
2023/05/17 01:24:44;;;;;;;4.00;2.28;;;7.70;99.90;;;;;;4997018;28;20033;-80
2023/05/17 01:27:13;;;;;;;6.50;2.88;;;7.70;99.90;;;;;;4982478;28;20061;-80
2023/05/17 01:29:41;;;;;;;6.17;1.80;;;7.60;99.90;;;;;;4978021;28;20033;-80
2023/05/17 01:32:09;;;;;;;5.23;3.03;;;7.60;99.90;;;;;;4995849;28;20026;-80
2023/05/17 01:34:35;;;;;;;8.13;2.67;;;;;;;;;;4979755;28;20023;-80
2023/05/17 01:37:01;;;;;;;8.10;2.17;;;;;;;;;;4997802;28;20018;-80
2023/05/17 01:39:28;;;;;;;3.45;1.75;;;7.50;99.90;;;;;;4979180;28;20041;-79
2023/05/17 01:42:06;;;;;;;6.55;2.75;;;6.70;99.90;;;;;;4979329;28;20018;-81
2023/05/17 01:45:15;;;;;;;2.75;2.03;;;7.40;99.90;;;;;;4979986;28;20030;-80
2023/05/17 01:48:10;;;;;;;3.08;2.78;;;7.40;99.90;;;;;;4934877;29;20036;-79
2023/05/17 01:50:38;;;;;;;5.15;2.30;;;7.30;99.90;;;;;;4919620;29;20035;-79
2023/05/17 01:53:27;;;;;;;4.15;1.90;;;7.20;99.90;;;;;;4961613;28;20341;-78
2023/05/17 01:56:00;;;;;;;3.80;2.22;;;7.20;99.90;;;;;;4974038;28;20038;-78
2023/05/17 01:58:28;;;;;;;8.05;1.95;;;7.10;99.90;;;;;;4979133;28;20031;-79
2023/05/17 02:00:57;;;;;;;5.97;2.83;;;7.10;99.90;;;;;;4997188;28;20027;-80
2023/05/17 02:03:23;;;;;;;7.20;1.70;;;7.10;99.90;;;;;;4996945;28;20026;-80
2023/05/17 02:05:49;;;;;;;2.75;2.25;;;7.10;99.90;;;;;;4979931;28;20453;-80
2023/05/17 02:08:14;;;;;;;7.53;2.28;;;7.10;99.90;;;;;;4996850;28;20090;-79
2023/05/17 02:10:40;;;;;;;2.75;2.53;;;7.00;99.90;;;;;;4978326;28;20026;-79
2023/05/17 02:13:06;;;;;;;4.82;2.67;;;7.00;99.90;;;;;;4979701;28;20121;-80
2023/05/17 02:15:31;;;;;;;5.97;3.03;;;7.10;99.90;;;;;;4996546;28;20026;-79
2023/05/17 02:17:57;;;;;;;4.28;1.70;;;7.10;99.90;;;;;;4979314;28;20026;-80
2023/05/17 02:20:23;;;;;;;4.05;1.55;;;7.10;99.90;;;;;;4980189;28;20649;-79
2023/05/17 02:22:48;;;;;;;4.65;2.83;;;7.10;99.90;;;;;;4979457;28;20506;-80
2023/05/17 02:25:15;;;;;;;3.70;1.80;;;7.10;99.90;;;;;;4978867;28;20037;-81
2023/05/17 02:27:40;;;;;;;5.15;2.28;;;7.10;99.90;;;;;;4996347;28;20062;-80
2023/05/17 02:30:07;;;;;;;2.55;1.60;;;7.10;99.90;;;;;;4978470;28;20086;-79
2023/05/17 02:32:32;;;;;;;6.78;1.85;;;7.00;99.90;;;;;;4978252;28;20030;-79
2023/05/17 02:34:59;;;;;;;3.78;1.50;;;7.00;99.90;;;;;;4997862;28;20046;-80
2023/05/17 02:37:25;;;;;;;7.55;2.17;;;7.00;99.90;;;;;;4996163;28;20034;-79
2023/05/17 02:39:50;;;;;;;2.47;1.80;;;7.00;99.90;;;;;;4977107;28;20069;-79
2023/05/17 02:42:16;;;;;;;2.20;2.00;;;7.00;99.90;;;;;;4995431;28;20030;-79
2023/05/17 02:44:42;;;;;;;6.03;2.03;;;7.00;99.90;;;;;;4977988;28;20046;-79
2023/05/17 02:47:08;;;;;;;3.60;1.50;;;6.90;99.90;;;;;;4995537;28;20037;-79
2023/05/17 02:49:33;;;;;;;2.13;1.50;;;6.90;99.90;;;;;;4977495;28;20030;-80
2023/05/17 02:51:59;;;;;;;3.75;1.70;;;6.80;99.90;;;;;;4976847;28;20545;-80
2023/05/17 02:54:25;;;;;;;3.67;2.20;;;6.90;99.90;;;;;;4958288;28;20116;-80
2023/05/17 02:56:51;;;;;;;4.63;1.80;;;6.80;99.90;;;;;;4975851;28;20042;-79
2023/05/17 02:59:16;;;;;;;3.53;1.95;;;6.80;99.90;;;;;;4976048;28;20027;-80
2023/05/17 03:01:42;;;;;;;3.08;1.80;;;6.80;99.90;;;;;;4957997;28;20241;-80
2023/05/17 03:04:08;;;;;;;3.75;2.05;;;6.80;99.90;;;;;;4959035;28;20026;-79
2023/05/17 03:06:33;;;;;;;6.18;2.20;;;6.70;99.90;;;;;;4958854;28;20031;-80
2023/05/17 03:08:59;;;;;;;5.90;2.08;;;6.70;99.90;;;;;;4958448;28;20031;-80
2023/05/17 03:11:25;;;;;;;4.75;2.40;;;6.60;99.90;;;;;;4957819;28;20131;-79
2023/05/17 03:13:51;;;;;;;3.67;2.03;;;6.60;99.90;;;;;;4958963;28;20030;-80
2023/05/17 03:16:17;;;;;;;4.72;2.42;;;;;;;;;;4958281;28;20125;-80
2023/05/17 03:18:43;;;;;;;3.63;2.38;;;6.50;99.90;;;;;;4977959;28;20027;-80
2023/05/17 03:21:09;;;;;;;3.15;2.03;;;6.60;99.90;;;;;;4960641;28;20022;-80
2023/05/17 03:23:34;;;;;;;3.05;1.90;;;6.50;99.90;;;;;;4961109;28;20023;-80
2023/05/17 03:26:00;;;;;;;7.85;2.22;;;6.50;99.90;;;;;;4961015;28;20039;-80
2023/05/17 03:28:26;;;;;;;3.63;2.75;;;6.40;99.90;;;;;;4961548;28;20384;-81
2023/05/17 03:30:51;;;;;;;2.15;2.03;;;6.40;99.90;;;;;;4961323;28;20027;-79
2023/05/17 03:33:18;;;;;;;5.88;1.90;;;6.30;99.90;;;;;;4960907;28;20464;-78
2023/05/17 03:35:47;;;;;;;5.05;2.60;;;6.30;99.90;;;;;;4961686;28;20487;-79
2023/05/17 03:38:13;;;;;;;4.93;2.83;;;6.30;99.90;;;;;;4979234;28;20034;-80
2023/05/17 03:40:40;;;;;;;3.38;2.45;;;7.50;99.90;;;;;;4961123;28;20039;-79
2023/05/17 03:43:06;;;;;;;4.13;2.42;;;6.20;99.90;;;;;;4977505;28;20031;-79
2023/05/17 03:45:32;;;;;;;19.75;3.70;;;;;;;;;;4961910;28;20597;-79
2023/05/17 03:47:58;;;;;;;3.55;2.15;;;6.20;99.90;;;;;;4979336;28;20038;-79
2023/05/17 03:50:23;;;;;;;7.55;2.22;;;6.10;99.90;;;;;;4961612;28;20030;-79
2023/05/17 03:52:49;;;;;;;4.18;2.17;;;6.10;99.90;;;;;;4970304;28;20061;-80
2023/05/17 03:55:14;;;;;;;2.42;2.33;;;6.00;99.90;;;;;;5000017;28;20036;-80
2023/05/17 03:57:40;;;;;;;3.65;2.28;;;6.00;99.90;;;;;;4982037;28;20023;-79
2023/05/17 04:00:09;;;;;;;2.88;2.10;;;;;;;;;;5001353;28;20018;-81
2023/05/17 04:02:35;;;;;;;4.10;2.72;;;5.90;99.90;;;;;;4983883;28;20026;-79
2023/05/17 04:05:01;;;;;;;6.18;2.78;;;5.80;99.90;;;;;;4984115;28;20032;-80
2023/05/17 04:07:27;;;;;;;5.88;2.90;;;5.80;99.90;;;;;;4985334;28;20054;-79
2023/05/17 04:09:54;;;;;;;3.78;2.45;;;5.80;99.90;;;;;;4985053;28;20372;-79
2023/05/17 04:12:19;;;;;;;3.35;2.22;;;5.90;99.90;;;;;;4982089;28;20454;-79
2023/05/17 04:14:45;;;;;;;8.38;2.58;;;;;;;;;;4999853;28;20033;-81
2023/05/17 04:17:11;;;;;;;2.88;2.58;;;5.90;99.90;;;;;;5003003;28;20034;-80
2023/05/17 04:19:37;;;;;;;3.33;2.50;;;5.90;99.90;;;;;;4984594;28;20026;-81
2023/05/17 04:22:02;;;;;;;3.78;2.63;;;6.00;99.90;;;;;;4983466;28;20033;-80
2023/05/17 04:24:28;;;;;;;3.25;2.78;;;6.00;99.90;;;;;;4980741;28;20026;-79
2023/05/17 04:26:53;;;;;;;2.95;2.13;;;6.10;99.90;;;;;;4981365;28;20037;-81
2023/05/17 04:29:19;;;;;;;7.63;2.15;;;6.30;99.90;;;;;;4982760;28;20022;-81
2023/05/17 04:31:47;;;;;;;5.45;2.33;;;6.20;99.90;;;;;;4982638;28;20117;-80
2023/05/17 04:34:13;;;;;;;8.50;3.22;;;6.40;99.90;;;;;;4982716;28;20026;-80
2023/05/17 04:36:39;;;;;;;2.58;1.80;;;6.50;99.90;;;;;;4982326;28;20026;-80
2023/05/17 04:39:04;;;;;;;6.93;2.65;;;6.60;99.90;;;;;;4998768;28;20027;-80
2023/05/17 04:41:30;;;;;;;2.30;2.10;;;6.60;99.90;;;;;;4980808;28;20431;-80
2023/05/17 04:43:56;;;;;;;1.92;1.83;;;6.80;99.90;;;;;;4982821;28;20022;-80
2023/05/17 04:46:22;;;;;;;4.90;2.03;;;6.80;99.90;;;;;;4982478;28;20049;-80
2023/05/17 04:48:48;;;;;;;5.30;2.20;;;6.80;99.90;;;;;;4983875;28;20026;-80
2023/05/17 04:51:14;;;;;;;5.25;2.80;;;6.70;99.90;;;;;;4980087;28;20109;-78
2023/05/17 04:53:39;;;;;;;3.38;3.03;;;6.70;99.90;;;;;;4978925;28;20073;-80
2023/05/17 04:56:05;;;;;;;4.88;2.40;;;6.70;99.90;;;;;;4979017;28;20486;-80
2023/05/17 04:58:31;;;;;;;5.03;2.70;;;6.70;99.90;;;;;;4978920;28;20077;-81
2023/05/17 05:00:57;;;;;;;3.55;2.78;;;6.70;99.90;;;;;;4996763;28;20030;-81
2023/05/17 05:03:22;;;;;;;5.78;2.28;;;6.70;99.90;;;;;;4979529;28;20041;-80
2023/05/17 05:05:48;;;;;;;6.57;2.95;;;6.70;99.90;;;;;;4999540;28;20065;-80
2023/05/17 05:08:14;;;;;;;8.45;2.28;;;6.70;99.90;;;;;;4998953;28;20030;-79
2023/05/17 05:10:39;;;;;;;4.60;2.30;;;6.80;99.90;;;;;;4999364;28;20026;-80
2023/05/17 05:13:05;;;;;;;5.35;2.53;;;6.80;99.90;;;;;;5001011;28;20025;-80
2023/05/17 05:15:34;;;;;;;6.95;2.65;;;6.90;99.90;;;;;;4983592;28;20022;-80
2023/05/17 05:18:01;;;;;;;4.47;2.05;;;6.80;99.90;;;;;;4982269;28;20049;-81
2023/05/17 05:20:26;;;;;;;3.42;2.28;;;6.80;99.90;;;;;;4982740;28;20113;-80
2023/05/17 05:22:52;;;;;;;4.43;2.70;;;6.90;99.90;;;;;;4982944;28;20058;-79
2023/05/17 05:25:18;;;;;;;7.05;2.60;;;7.00;99.90;;;;;;4982845;28;20108;-80
2023/05/17 05:27:43;;;;;;;4.90;2.35;;;7.00;99.90;;;;;;4983061;28;20038;-80
2023/05/17 05:30:09;;;;;;;5.18;2.13;;;7.10;99.90;;;;;;4982760;28;20026;-80
2023/05/17 05:32:36;;;;;;;5.47;2.00;;;7.20;99.90;;;;;;4981484;28;20034;-80
2023/05/17 05:35:04;;;;;;;5.90;2.20;;;7.30;99.90;;;;;;4981317;28;20073;-81
2023/05/17 05:37:30;;;;;;;2.63;2.30;;;8.40;99.90;;;;;;4981432;28;20030;-80
2023/05/17 05:39:58;;;;;;;8.15;2.72;;;7.30;99.90;;;;;;4980143;28;20446;-80
2023/05/17 05:42:23;;;;;;;6.43;1.77;;;7.30;99.90;;;;;;4980764;28;20034;-80
2023/05/17 05:44:49;;;;;;;2.97;2.20;;;7.50;99.90;;;;;;4998541;28;20534;-80
2023/05/17 05:47:15;;;;;;;4.90;2.15;;;7.60;99.90;;;;;;4980006;28;20031;-81
2023/05/17 05:49:40;;;;;;;4.15;1.80;;;7.60;99.90;;;;;;4978527;28;20030;-80
2023/05/17 05:52:06;;;;;;;5.50;2.08;;;7.60;99.90;;;;;;4996175;28;20030;-80
2023/05/17 05:54:31;;;;;;;4.05;2.15;;;7.60;99.90;;;;;;4961677;28;20121;-81
2023/05/17 05:56:59;;;;;;;4.43;2.28;;;7.70;99.90;;;;;;4957545;29;20042;-79
2023/05/17 05:59:25;;;;;;;9.20;2.17;;;7.80;99.90;;;;;;4948206;29;20019;-80
2023/05/17 06:01:50;;;;;;;7.28;1.98;;;7.70;99.90;;;;;;4950261;29;20031;-79
2023/05/17 06:04:16;;;;;;;10.23;2.20;;;7.70;99.90;;;;;;4948641;29;20042;-81
2023/05/17 06:06:41;;;;;;;3.55;2.30;;;8.00;99.90;;;;;;4941817;29;20046;-80
2023/05/17 06:09:10;;;;;;;5.90;3.17;;;8.00;99.90;;;;;;4941834;29;20023;-81
2023/05/17 06:11:36;;;;;;;5.97;2.10;;;8.10;99.90;;;;;;4941991;29;20023;-79
2023/05/17 06:14:02;;;;;;;4.53;1.98;;;8.20;99.90;;;;;;4941887;29;20042;-79
2023/05/17 06:16:28;;;;;;;1.90;1.70;;;8.40;99.90;;;;;;4942116;29;20031;-81
2023/05/17 06:18:53;;;;;;;2.30;1.70;;;8.60;99.90;;;;;;4941079;29;20501;-79
2023/05/17 06:21:19;;;;;;;8.57;2.88;;;9.00;99.90;;;;;;4958073;28;20523;-80
2023/05/17 06:23:45;;;;;;;2.42;1.85;;;9.00;99.90;;;;;;4941417;29;20030;-79
2023/05/17 06:26:10;;;;;;;2.88;2.05;;;8.60;99.90;;;;;;4958824;29;20480;-81
2023/05/17 06:28:37;;;;;;;5.68;2.58;;;8.50;99.90;;;;;;4941680;29;20063;-80
2023/05/17 06:31:02;;;;;;;2.85;1.95;;;8.50;99.90;;;;;;4943984;29;20027;-81
2023/05/17 06:33:28;;;;;;;3.30;1.58;;;8.70;99.90;;;;;;4949790;29;20114;-79
2023/05/17 06:35:55;;;;;;;2.35;2.05;;;8.70;99.90;;;;;;4962229;29;20074;-78
2023/05/17 06:38:21;;;;;;;7.38;1.80;;;8.80;99.90;;;;;;4947084;29;20098;-78
2023/05/17 06:40:50;;;;;;;3.53;1.83;;;8.90;99.90;;;;;;4948170;29;20015;-78
2023/05/17 06:43:16;;;;;;;;;;;9.00;99.90;;;;;;4965991;29;20030;-79
2023/05/17 06:45:42;;;;;;;2.00;1.48;;;8.80;99.90;;;;;;4947181;29;19906;-79
2023/05/17 06:48:08;;;;;;;2.45;1.85;;;8.90;99.90;;;;;;4962785;29;20026;-79
2023/05/17 06:50:33;;;;;;;1.77;1.65;;;9.00;99.90;;;;;;4946113;29;20083;-79
2023/05/17 06:52:59;;;;;;;2.20;1.95;;;10.80;99.90;;;;;;4954249;28;20090;-78
2023/05/17 06:55:27;;;;;;;5.45;1.63;;;9.90;99.90;;;;;;4982120;28;20034;-78
2023/05/17 06:57:52;;;;;;;5.10;1.75;;;10.40;99.90;;;;;;4964733;28;20386;-78
2023/05/17 07:00:18;;;;;;;2.05;1.85;;;11.00;99.90;;;;;;4958953;28;20117;-78
2023/05/17 07:02:44;;;;;;;1.65;1.50;;;10.90;99.90;;;;;;4942838;29;20082;-78
2023/05/17 07:05:09;;;;;;;5.05;1.90;;;11.30;99.90;;;;;;4943695;28;20035;-80
2023/05/17 07:07:35;;;;;;;5.05;2.00;;;11.60;99.90;;;;;;4958613;28;20038;-78
2023/05/17 07:10:01;;;;;;;2.67;1.30;;;12.10;99.90;;;;;;4962705;28;20039;-78
2023/05/17 07:12:28;;;;;;;3.08;1.38;;;12.50;99.90;;;;;;4967891;28;20062;-78
2023/05/17 07:14:53;;;;;;;3.60;1.08;;;12.70;99.90;;;;;;4986084;28;20061;-80
2023/05/17 07:17:19;;;;;;;8.07;1.90;;;12.70;99.90;;;;;;4984843;28;20026;-81
2023/05/17 07:19:49;;;;;;;3.28;1.80;;;12.60;99.90;;;;;;4986071;28;20022;-78
2023/05/17 07:22:16;;;;;;;2.88;1.33;;;12.60;99.90;;;;;;4986528;28;20058;-79
2023/05/17 07:24:42;;;;;;;4.13;1.88;;;12.70;99.90;;;;;;4984971;28;20390;-80
2023/05/17 07:27:08;;;;;;;13.20;2.75;;;12.40;99.90;;;;;;4996548;28;20065;-78
2023/05/17 07:29:37;;;;;;;8.50;1.92;;;;;;;;;;4965831;28;20469;-78
2023/05/17 07:32:03;;;;;;;5.80;1.77;;;12.50;99.90;;;;;;4965690;28;20511;-79
2023/05/17 07:34:32;;;;;;;11.70;2.28;;;12.40;99.90;;;;;;4965290;28;20034;-79
2023/05/17 07:36:58;;;;;;;2.38;1.40;;;12.50;99.90;;;;;;4949078;29;20114;-78
2023/05/17 07:39:23;;;;;;;3.55;1.73;;;12.60;99.90;;;;;;4959922;29;20031;-78
2023/05/17 07:41:49;;;;;;;3.25;1.30;;;13.00;99.90;;;;;;4959074;29;20381;-80
2023/05/17 07:44:15;;;;;;;7.50;1.80;;;12.90;96.00;;;;;;4967136;28;20539;-80
2023/05/17 07:46:40;;;;;;;1.58;1.00;;;13.00;97.30;;;;;;4956762;28;20046;-80
2023/05/17 07:49:06;;;;;;;2.20;1.40;;;;;;;;;;4965593;28;20094;-79
2023/05/17 07:51:34;;;;;;;2.33;1.30;;;13.20;97.90;;;;;;4961609;28;20038;-78
2023/05/17 07:54:02;;;;;;;2.97;1.77;;;13.30;96.40;;;;;;4966023;28;20096;-81
2023/05/17 07:56:28;;;;;;;2.40;1.40;;;13.10;95.70;;;;;;4972495;28;20025;-79
2023/05/17 07:58:54;;;;;;;12.70;2.00;;;13.10;95.20;;;;;;4971093;28;20038;-78
2023/05/17 08:01:21;;;;;;;8.50;1.70;;;12.80;97.60;;;;;;4941909;29;20031;-78
2023/05/17 08:03:47;;;;;;;4.93;1.83;;;;;;;;;;4951328;29;20150;-80
2023/05/17 08:06:17;;;;;;;1.73;1.10;;;12.90;96.20;;;;;;4952446;29;20090;-79
2023/05/17 08:08:43;;;;;;;3.20;1.85;;;12.80;96.00;;;;;;4933706;29;20151;-79
2023/05/17 08:11:11;;;;;;;3.05;1.80;;;13.00;96.00;;;;;;4933252;29;20046;-77
2023/05/17 08:13:37;;;;;;;8.40;1.20;;;13.00;96.30;;;;;;4951921;29;20491;-78
2023/05/17 08:16:06;;;;;;;3.05;1.33;;;13.40;94.70;;;;;;4950656;28;20045;-79
2023/05/17 08:18:32;;;;;;;5.40;1.38;;;13.60;92.70;;;;;;4939385;28;20022;-78
2023/05/17 08:20:58;;;;;;;3.10;1.50;;;13.60;90.60;;;;;;4962561;28;20030;-79
2023/05/17 08:23:24;;;;;;;2.97;1.42;;;13.20;94.10;;;;;;4962054;29;20212;-79
2023/05/17 08:25:49;;;;;;;2.60;1.27;;;13.10;93.70;;;;;;4944119;29;20381;-79
2023/05/17 08:28:16;;;;;;;6.53;1.50;;;;;;;;;;4945132;29;20053;-79
2023/05/17 08:30:42;;;;;;;2.78;1.50;;;13.60;90.50;;;;;;4944610;29;20058;-80
2023/05/17 08:33:10;;;;;;;2.17;1.23;;;13.50;92.40;;;;;;4935354;29;20019;-79
2023/05/17 08:35:37;;;;;;;4.55;1.35;;;12.90;93.10;;;;;;4935121;29;20066;-78
2023/05/17 08:38:03;;;;;;;3.20;1.40;;;12.70;94.80;;;;;;4934429;29;20542;-78
2023/05/17 08:40:29;;;;;;;6.25;2.08;;;12.60;95.20;;;;;;4936274;29;20130;-79
2023/05/17 08:42:55;;;;;;;3.38;1.63;;;;;;;;;;4936400;29;20029;-77
2023/05/17 08:45:23;;;;;;;4.60;1.55;;;12.30;95.30;;;;;;4936549;29;20117;-79
2023/05/17 08:47:53;;;;;;;5.70;2.08;;;12.20;96.40;;;;;;4935953;29;20109;-78
2023/05/17 08:50:19;;;;;;;7.07;1.50;;;12.40;97.20;;;;;;4936337;29;20110;-80
2023/05/17 08:52:45;;;;;;;3.47;1.65;;;12.30;95.90;;;;;;4939045;29;20134;-79
2023/05/17 08:55:10;;;;;;;3.67;2.05;;;12.20;97.30;;;;;;4936135;29;20074;-79
2023/05/17 08:57:38;;;;;;;7.57;2.80;;;12.70;96.50;;;;;;4952943;29;20555;-78
2023/05/17 09:00:12;;;;;;;4.75;1.77;;;12.70;96.40;;;;;;4936198;29;20056;-79
2023/05/17 09:02:41;;;;;;;5.10;1.70;;;;;;;;;;4953447;29;20066;-78
2023/05/17 09:05:08;;;;;;;2.00;1.63;;;12.10;95.00;;;;;;4935725;29;20027;-78
2023/05/17 09:07:34;;;;;;;2.88;1.70;;;12.00;96.60;;;;;;4934513;29;20047;-78
2023/05/17 09:10:04;;;;;;;3.33;1.77;;;12.10;95.80;;;;;;4934527;29;20024;-78
2023/05/17 09:12:33;;;;;;;4.15;1.48;;;12.10;98.00;;;;;;4934653;29;20034;-78
2023/05/17 09:15:15;;;;;;;2.72;1.15;;;12.50;96.60;;;;;;4952338;29;20075;-78
2023/05/17 09:17:42;;;;;;;7.40;2.15;;;;;;;;;;4952370;29;20110;-78
2023/05/17 09:20:08;;;;;;;4.28;1.52;;;;;;;;;;4934806;29;20049;-79
2023/05/17 09:22:35;;;;;;;3.70;1.50;;;13.50;93.30;;;;;;4935025;29;20035;-79
2023/05/17 09:25:03;;;;;;;7.20;1.40;;;13.70;93.60;;;;;;4934047;29;20027;-79
2023/05/17 09:27:30;;;;;;;3.25;1.83;;;13.70;91.60;;;;;;4935591;29;20049;-79
2023/05/17 09:29:57;;;;;;;4.25;1.30;;;13.60;93.50;;;;;;4935806;29;20182;-80
2023/05/17 09:32:23;;;;;;;4.65;1.48;;;13.50;94.30;;;;;;4935016;29;20086;-80
2023/05/17 09:34:52;;;;;;;3.90;1.30;;;13.70;92.20;;;;;;4934856;29;20088;-79
2023/05/17 09:37:19;;;;;;;5.63;1.48;;;12.60;90.80;;;;;;4934514;29;20058;-79
2023/05/17 09:39:46;;;;;;;4.75;1.77;;;12.60;91.10;;;;;;4951657;29;20027;-78
2023/05/17 09:42:13;;;;;;;2.72;1.30;;;12.60;93.10;;;;;;4934590;29;20082;-79
2023/05/17 09:44:52;;;;;;;5.25;1.70;;;12.90;92.60;;;;;;4935378;29;20118;-79
2023/05/17 09:47:29;;;;;;;1.98;1.27;;;13.20;92.50;;;;;;4934837;29;20052;-78
2023/05/17 09:49:57;;;;;;;2.40;1.25;;;13.00;91.20;;;;;;4935193;29;20059;-78
2023/05/17 09:52:23;;;;;;;6.43;1.55;;;12.70;90.80;;;;;;4934498;28;20043;-79
2023/05/17 09:54:57;;;;;;;4.40;1.55;;;12.80;90.50;;;;;;4934377;29;20090;-80
2023/05/17 09:57:26;;;;;;;1.80;1.70;;;13.00;90.90;;;;;;4937106;29;20114;-79
2023/05/17 09:59:55;;;;;;;4.17;1.90;;;12.90;90.10;;;;;;4956330;29;20031;-80
2023/05/17 10:02:31;;;;;;;4.70;1.65;;;13.00;87.30;;;;;;4937739;29;20034;-78
2023/05/17 10:04:57;;;;;;;3.67;1.30;;;13.40;88.10;;;;;;4937688;29;20147;-79
2023/05/17 10:07:25;;;;;;;4.13;1.55;;;14.10;85.20;;;;;;4937808;29;20094;-79
2023/05/17 10:09:54;;;;;;;3.70;1.58;;;14.40;82.50;;;;;;4937623;29;20635;-78
2023/05/17 10:12:26;;;;;;;2.10;1.50;;;14.50;80.00;;;;;;4938151;29;20027;-78
2023/05/17 10:14:55;;;;;;;10.27;2.03;;;14.20;84.80;;;;;;4937838;29;20034;-80
2023/05/17 10:17:22;;;;;;;2.47;1.17;;;14.50;80.70;;;;;;4937500;29;20034;-79
2023/05/17 10:19:48;;;;;;;4.25;1.52;;;14.60;81.80;;;;;;4937186;29;20519;-78
2023/05/17 10:22:16;;;;;;;4.38;1.80;;;14.90;77.70;;;;;;4954689;29;20034;-79
2023/05/17 10:24:43;;;;;;;2.17;1.45;;;14.30;76.40;;;;;;4937651;29;20043;-78
2023/05/17 10:27:09;;;;;;;3.08;1.63;;;14.20;77.40;;;;;;4937039;29;20153;-78
2023/05/17 10:29:38;;;;;;;4.70;1.60;;;14.40;79.40;;;;;;4954744;29;20035;-79
2023/05/17 10:32:09;;;;;;;6.28;1.63;;;13.70;78.60;;;;;;4937969;29;20031;-79
2023/05/17 10:34:36;;;;;;;4.13;1.83;;;13.50;78.40;;;;;;4938544;29;20027;-78
2023/05/17 10:37:03;;;;;;;8.05;1.73;;;;;;;;;;4940701;29;20038;-78
2023/05/17 10:39:30;;;;;;;5.45;2.05;;;;;;;;;;4956839;29;20031;-79
2023/05/17 10:41:58;;;;;;;4.18;1.90;;;13.10;81.90;;;;;;4936199;29;20035;-78
2023/05/17 10:44:24;;;;;;;2.90;1.45;;;;;;;;;;4942685;29;20035;-79
2023/05/17 10:46:54;;;;;;;3.60;1.20;;;13.50;80.10;;;;;;4942157;29;20130;-78
2023/05/17 10:49:25;;;;;;;1.52;1.10;;;13.40;80.00;;;;;;4959286;29;20031;-79
2023/05/17 10:51:51;;;;;;;2.88;1.90;;;14.20;79.20;;;;;;4962399;29;20023;-79
2023/05/17 10:54:17;;;;;;;3.33;1.40;;;;;;;;;;4960164;28;20144;-79
2023/05/17 10:56:53;;;;;;;2.33;1.60;;;15.10;75.20;;;;;;4960634;29;20472;-79
2023/05/17 10:59:20;;;;;;;5.22;2.15;;;14.60;75.20;;;;;;4938392;29;20118;-80
2023/05/17 11:02:06;;;;;;;5.75;2.00;;;14.10;75.70;;;;;;4940879;29;20085;-79
2023/05/17 11:04:37;;;;;;;4.57;1.50;;;14.00;74.80;;;;;;4961109;29;20306;-79
2023/05/17 11:10:10;;;;;;;2.05;1.60;;;14.90;73.80;;;;;;4943026;29;20024;-79
2023/05/17 11:12:41;;;;;;;5.05;1.80;;;14.80;74.10;;;;;;4924686;29;20248;-80
2023/05/17 11:15:33;;;;;;;5.57;2.53;;;14.00;75.30;;;;;;4940201;29;20104;-79
2023/05/17 11:18:00;;;;;;;3.40;1.42;;;13.90;75.40;;;;;;4927474;29;20079;-80
2023/05/17 11:20:41;;;;;;;3.42;1.35;;;14.00;75.70;;;;;;4954197;28;20030;-81
2023/05/17 11:23:16;;;;;;;3.97;1.50;;;14.00;73.60;;;;;;4962811;28;20065;-80
2023/05/17 11:25:41;;;;;;;2.45;1.15;;;14.00;74.20;;;;;;4956781;28;20019;-78
2023/05/17 11:28:21;;;;;;;4.32;2.00;;;14.00;74.00;;;;;;4974881;28;20105;-79
2023/05/17 11:30:52;;;;;;;4.20;1.48;;;15.20;73.70;;;;;;4974760;28;20037;-78
2023/05/17 11:33:20;;;;;;;1.70;1.40;;;15.40;73.00;;;;;;4954632;28;20150;-79
2023/05/17 11:35:46;;;;;;;1.70;1.25;;;16.50;72.60;;;;;;4933952;29;20034;-79
2023/05/17 11:38:20;;;;;;;1.75;1.42;;;15.60;69.50;;;;;;4935637;29;20035;-79
2023/05/17 11:40:48;;;;;;;5.07;2.28;;;15.40;71.90;;;;;;4934764;29;20039;-78
2023/05/17 11:43:20;;;;;;;2.35;1.38;;;15.50;70.40;;;;;;4935227;29;20115;-79
2023/05/17 11:45:56;;;;;;;6.72;2.05;;;15.20;72.70;;;;;;4933818;29;20121;-79
2023/05/17 11:48:25;;;;;;;3.45;1.45;;;15.00;71.80;;;;;;4952274;29;20023;-78
2023/05/17 11:50:53;;;;;;;4.05;1.17;;;15.90;71.60;;;;;;4938247;29;20081;-78
2023/05/17 11:53:19;;;;;;;4.57;2.25;;;15.60;69.50;;;;;;4955963;28;20047;-78
2023/05/17 11:55:50;;;;;;;1.98;1.30;;;16.40;67.70;;;;;;4936823;29;20481;-79
2023/05/17 11:58:26;;;;;;;3.65;1.48;;;16.60;69.10;;;;;;4935276;29;20027;-78
2023/05/17 12:00:56;;;;;;;4.28;1.48;;;16.60;70.50;;;;;;4936011;29;20027;-80
2023/05/17 12:03:29;;;;;;;2.10;1.55;;;;;;;;;;4944013;29;20085;-80
2023/05/17 12:06:10;;;;;;;4.50;1.55;;;16.10;66.70;;;;;;4946083;29;20038;-79
2023/05/17 12:08:37;;;;;;;3.83;1.50;;;16.50;67.60;;;;;;4954920;28;20023;-80
2023/05/17 12:11:05;;;;;;;1.27;1.10;;;16.50;67.60;;;;;;4982045;28;20019;-79
2023/05/17 12:13:32;;;;;;;1.35;1.25;;;16.60;68.30;;;;;;4965037;28;20026;-78
2023/05/17 12:16:04;;;;;;;2.85;1.50;;;16.50;67.30;;;;;;4964830;28;20026;-79
2023/05/17 12:18:38;;;;;;;1.52;1.35;;;16.30;69.70;;;;;;4963965;28;20258;-80
2023/05/17 12:21:05;;;;;;;2.35;1.27;;;16.10;66.50;;;;;;4982669;28;20315;-79
2023/05/17 12:23:40;;;;;;;2.65;1.70;;;16.00;67.90;;;;;;4967890;28;20023;-79
2023/05/17 12:26:14;;;;;;;3.97;1.90;;;15.50;69.90;;;;;;4982921;28;20545;-80
2023/05/17 12:28:46;;;;;;;7.22;2.10;;;15.40;69.30;;;;;;4968987;28;20026;-79
2023/05/17 12:31:19;;;;;;;6.65;2.63;;;15.10;72.20;;;;;;4968031;28;20015;-78
2023/05/17 12:33:46;;;;;;;4.68;2.10;;;14.70;74.60;;;;;;4947692;29;20032;-81
2023/05/17 12:36:13;;;;;;;5.20;2.40;;;15.00;72.10;;;;;;4939812;29;20035;-79
2023/05/17 12:38:55;;;;;;;5.28;1.85;;;;;;;;;;4942035;29;20032;-80
2023/05/17 12:41:48;;;;;;;4.28;2.10;;;;;;;;;;4956513;29;20024;-81
2023/05/17 12:44:19;;;;;;;4.68;1.80;;;15.80;73.10;;;;;;5066757;23;20046;-81
2023/05/17 12:50:31;;;;;;;5.57;2.03;;;;;;;;;;4988774;28;20018;-81
2023/05/17 12:53:10;;;;;;;3.30;1.73;;;;;;;;;;4996925;28;20043;-82
2023/05/17 12:56:25;;;;;;;8.30;2.42;;;15.20;72.30;;;;;;4997291;28;20015;-81
2023/05/17 12:59:13;;;;;;;6.78;2.30;;;15.20;73.10;;;;;;5043108;23;20414;-81
2023/05/17 13:01:59;;;;;;;6.57;2.10;;;15.20;73.70;;;;;;4978461;28;20033;-79
2023/05/17 13:04:30;;;;;;;5.88;2.42;;;15.10;72.30;;;;;;4975601;28;20237;-79
2023/05/17 13:06:58;;;;;;;3.60;1.65;;;15.50;73.50;;;;;;4989383;28;20094;-80
2023/05/17 13:09:29;;;;;;;2.20;1.58;;;14.10;71.20;;;;;;4983211;28;20011;-79
2023/05/17 13:11:56;;;;;;;5.20;1.50;;;16.60;70.10;;;;;;4987858;28;20111;-79